Time;durP1;ratioP1;P1;durP2;ratioP2;P2;SDS_P1;SDS_P2;PMS_P1;PMS_P2;Temp;Humidity;BMP_temperature;BMP_pressure;BME280_temperature;BME280_humidity;BME280_pressure;Samples;Min_cycle;Max_cycle;Signal;HPM_P1;HPM_P2
2023/10/31 00:02:09;;;;;;;6.23;2.00;;;18.10;99.90;;;;;;5081082;28;20220;-67
2023/10/31 00:04:37;;;;;;;7.27;2.33;;;18.00;99.90;;;;;;5076442;28;20635;-67
2023/10/31 00:07:04;;;;;;;7.50;1.97;;;18.00;99.90;;;;;;5086365;28;20211;-66
2023/10/31 00:09:31;;;;;;;4.10;1.77;;;18.00;99.90;;;;;;5075473;28;20331;-66
2023/10/31 00:11:59;;;;;;;6.67;1.73;;;18.00;99.90;;;;;;5077242;28;20203;-66
2023/10/31 00:14:26;;;;;;;4.70;2.07;;;17.90;99.90;;;;;;5081466;28;20214;-66
2023/10/31 00:16:58;;;;;;;5.30;1.50;;;17.90;99.90;;;;;;5082633;28;20195;-65
2023/10/31 00:19:26;;;;;;;6.67;1.90;;;17.80;99.90;;;;;;5077973;28;20234;-65
2023/10/31 00:21:53;;;;;;;2.17;1.63;;;17.80;99.90;;;;;;5081782;28;20543;-65
2023/10/31 00:24:20;;;;;;;5.17;1.97;;;17.70;99.90;;;;;;5081107;28;20697;-65
2023/10/31 00:26:47;;;;;;;11.17;2.47;;;17.70;99.90;;;;;;5080012;28;20511;-67
2023/10/31 00:29:14;;;;;;;6.07;2.77;;;17.70;99.90;;;;;;5081754;28;20197;-67
2023/10/31 00:31:41;;;;;;;4.97;1.77;;;17.70;99.90;;;;;;5069974;28;20199;-67
2023/10/31 00:34:08;;;;;;;7.77;2.33;;;17.70;99.90;;;;;;5080736;28;20214;-67
2023/10/31 00:36:36;;;;;;;4.33;1.90;;;17.60;99.90;;;;;;5081390;28;20195;-67
2023/10/31 00:39:03;;;;;;;5.50;1.67;;;17.60;99.90;;;;;;5066385;28;20215;-67
2023/10/31 00:41:30;;;;;;;7.97;1.90;;;17.60;99.90;;;;;;5064726;28;20299;-68
2023/10/31 00:43:57;;;;;;;7.93;2.30;;;17.60;99.90;;;;;;5083852;28;20207;-67
2023/10/31 00:46:24;;;;;;;5.63;2.00;;;17.60;99.90;;;;;;5077132;28;20187;-67
2023/10/31 00:48:51;;;;;;;6.73;2.40;;;17.60;99.90;;;;;;5064520;28;20208;-67
2023/10/31 00:51:19;;;;;;;8.20;2.27;;;17.50;99.90;;;;;;5084762;28;20306;-67
2023/10/31 00:53:46;;;;;;;3.30;1.60;;;17.50;99.90;;;;;;5080459;28;20815;-67
2023/10/31 00:56:13;;;;;;;5.50;1.60;;;17.50;99.90;;;;;;5071802;28;20201;-67
2023/10/31 00:58:40;;;;;;;7.03;2.03;;;17.40;99.90;;;;;;5066877;28;20234;-67
2023/10/31 01:01:07;;;;;;;7.13;1.57;;;17.40;99.90;;;;;;5091209;28;20206;-66
2023/10/31 01:03:34;;;;;;;3.53;1.93;;;17.30;99.90;;;;;;5059666;28;20293;-66
2023/10/31 01:06:01;;;;;;;3.50;2.57;;;17.30;99.90;;;;;;5066602;28;20231;-66
2023/10/31 01:08:28;;;;;;;6.93;1.97;;;17.30;99.90;;;;;;5081866;28;20199;-66
2023/10/31 01:10:55;;;;;;;7.07;2.17;;;17.20;99.90;;;;;;5071477;28;20590;-65
2023/10/31 01:13:22;;;;;;;5.37;2.10;;;17.20;99.90;;;;;;5080829;28;20504;-65
2023/10/31 01:15:49;;;;;;;8.60;2.47;;;17.20;99.90;;;;;;5068131;28;20200;-66
2023/10/31 01:18:16;;;;;;;5.70;1.60;;;17.10;99.90;;;;;;5061607;28;20232;-66
2023/10/31 01:20:43;;;;;;;3.83;2.23;;;17.10;99.90;;;;;;5085081;28;20206;-66
2023/10/31 01:23:10;;;;;;;7.63;2.27;;;17.10;99.90;;;;;;5086574;28;20251;-65
2023/10/31 01:25:37;;;;;;;3.20;1.80;;;17.10;99.90;;;;;;5075778;28;20198;-65
2023/10/31 01:28:04;;;;;;;9.40;2.57;;;17.00;99.90;;;;;;5090438;28;20197;-66
2023/10/31 01:30:32;;;;;;;6.93;2.53;;;17.00;99.90;;;;;;5088495;28;20235;-66
2023/10/31 01:32:59;;;;;;;5.17;1.70;;;17.00;99.90;;;;;;5086732;28;20201;-66
2023/10/31 01:35:26;;;;;;;5.57;1.80;;;17.00;99.90;;;;;;5085905;28;20195;-66
2023/10/31 01:37:53;;;;;;;4.93;1.60;;;17.00;99.90;;;;;;5087898;28;20201;-66
2023/10/31 01:40:20;;;;;;;4.53;1.87;;;17.00;99.90;;;;;;5074253;28;20271;-66
2023/10/31 01:42:47;;;;;;;6.60;1.60;;;17.00;99.90;;;;;;5075993;28;20645;-66
2023/10/31 01:45:14;;;;;;;6.33;1.50;;;17.00;99.90;;;;;;5087461;28;20638;-66
2023/10/31 01:47:44;;;;;;;3.63;2.07;;;17.00;99.90;;;;;;5075862;28;20260;-66
2023/10/31 01:50:11;;;;;;;5.87;1.63;;;17.00;99.90;;;;;;5088190;28;20208;-66
2023/10/31 01:52:39;;;;;;;5.27;1.83;;;17.00;99.90;;;;;;5090055;28;20203;-66
2023/10/31 01:55:06;;;;;;;6.27;1.93;;;17.00;99.90;;;;;;5076011;28;20218;-66
2023/10/31 01:57:34;;;;;;;5.87;2.00;;;17.00;99.90;;;;;;5071401;28;20627;-66
2023/10/31 02:00:01;;;;;;;6.67;1.87;;;17.00;99.90;;;;;;5062347;28;20230;-66
2023/10/31 02:02:40;;;;;;;5.10;1.53;;;17.00;99.90;;;;;;5079732;28;20532;-66
2023/10/31 02:05:07;;;;;;;3.60;1.50;;;16.90;99.90;;;;;;5088677;28;20194;-66
2023/10/31 02:07:34;;;;;;;1.37;1.07;;;16.90;99.90;;;;;;5076911;28;20589;-67
2023/10/31 02:10:01;;;;;;;2.47;1.43;;;16.90;99.90;;;;;;5083972;28;20212;-66
2023/10/31 02:12:33;;;;;;;5.30;1.40;;;16.90;99.90;;;;;;5086422;28;20267;-66
2023/10/31 02:15:00;;;;;;;4.77;1.10;;;16.90;99.90;;;;;;5089782;28;20694;-66
2023/10/31 02:17:28;;;;;;;3.87;1.30;;;16.90;99.90;;;;;;5070148;28;20639;-66
2023/10/31 02:19:55;;;;;;;3.13;1.40;;;17.00;99.90;;;;;;5089152;28;20213;-66
2023/10/31 02:22:23;;;;;;;2.00;1.23;;;17.00;99.90;;;;;;5088199;28;20292;-66
2023/10/31 02:24:50;;;;;;;3.17;1.70;;;17.00;99.90;;;;;;5068095;28;20198;-66
2023/10/31 02:27:17;;;;;;;3.67;1.20;;;16.90;99.90;;;;;;5075455;28;20204;-66
2023/10/31 02:29:44;;;;;;;5.43;1.47;;;16.90;99.90;;;;;;5074975;28;20302;-66
2023/10/31 02:32:11;;;;;;;3.90;1.30;;;16.90;99.90;;;;;;5073267;28;20202;-66
2023/10/31 02:34:38;;;;;;;4.60;2.37;;;16.90;99.90;;;;;;5066708;28;20203;-66
2023/10/31 02:37:05;;;;;;;2.13;1.23;;;16.90;99.90;;;;;;5080999;28;20203;-66
2023/10/31 02:39:33;;;;;;;4.53;1.60;;;16.90;99.90;;;;;;5082010;28;20205;-66
2023/10/31 02:42:00;;;;;;;4.87;1.37;;;16.90;99.90;;;;;;5086853;28;20195;-66
2023/10/31 02:44:27;;;;;;;4.90;1.70;;;16.90;99.90;;;;;;5083243;28;20190;-66
2023/10/31 02:46:54;;;;;;;5.50;1.20;;;16.90;99.90;;;;;;5081085;28;20265;-66
2023/10/31 02:49:21;;;;;;;4.27;1.43;;;16.90;99.90;;;;;;5073115;28;20290;-66
2023/10/31 02:51:48;;;;;;;5.27;1.40;;;16.90;99.90;;;;;;5084560;28;20204;-66
2023/10/31 02:54:16;;;;;;;1.90;1.17;;;16.90;99.90;;;;;;5077463;28;20220;-66
2023/10/31 02:56:43;;;;;;;6.80;1.47;;;16.90;99.90;;;;;;5084460;28;20197;-66
2023/10/31 02:59:10;;;;;;;4.50;1.37;;;16.90;99.90;;;;;;5077797;28;20223;-66
2023/10/31 03:01:37;;;;;;;7.57;1.40;;;16.90;99.90;;;;;;5087319;28;20254;-66
2023/10/31 03:04:04;;;;;;;2.57;1.23;;;16.90;99.90;;;;;;5073986;28;20201;-66
2023/10/31 03:06:31;;;;;;;2.60;1.10;;;16.90;99.90;;;;;;5081604;28;20643;-66
2023/10/31 03:08:58;;;;;;;2.97;1.00;;;17.00;99.90;;;;;;5082033;28;20522;-66
2023/10/31 03:11:26;;;;;;;4.40;1.40;;;17.00;99.90;;;;;;5072626;28;20529;-66
2023/10/31 03:13:53;;;;;;;3.33;0.90;;;17.00;99.90;;;;;;5083088;28;20201;-66
2023/10/31 03:16:21;;;;;;;3.40;1.23;;;17.00;99.90;;;;;;5082502;28;20668;-66
2023/10/31 03:18:48;;;;;;;2.77;1.40;;;17.00;99.90;;;;;;5081716;28;20660;-66
2023/10/31 03:21:17;;;;;;;5.13;1.03;;;17.00;99.90;;;;;;5068773;28;20215;-66
2023/10/31 03:23:48;;;;;;;2.60;0.97;;;17.10;99.90;;;;;;5086097;28;20749;-66
2023/10/31 03:26:16;;;;;;;4.73;1.40;;;17.10;99.90;;;;;;5085739;28;20201;-66
2023/10/31 03:28:44;;;;;;;5.03;1.40;;;17.10;99.90;;;;;;5078595;28;20201;-66
2023/10/31 03:31:15;;;;;;;4.10;1.13;;;17.00;99.90;;;;;;5084156;28;20788;-66
2023/10/31 03:33:42;;;;;;;5.97;1.40;;;17.00;99.90;;;;;;5081600;28;20639;-66
2023/10/31 03:36:09;;;;;;;5.77;1.17;;;17.00;99.90;;;;;;5084336;28;20189;-66
2023/10/31 03:38:37;;;;;;;4.43;1.40;;;17.00;99.90;;;;;;5088960;28;20278;-66
2023/10/31 03:41:04;;;;;;;5.43;1.77;;;17.00;99.90;;;;;;5069995;28;20238;-66
2023/10/31 03:43:56;;;;;;;4.00;1.27;;;17.00;99.90;;;;;;5082520;28;20206;-66
2023/10/31 03:46:23;;;;;;;4.13;1.40;;;17.10;99.90;;;;;;5082834;28;20229;-66
2023/10/31 03:48:50;;;;;;;4.50;1.40;;;17.10;99.90;;;;;;5065350;28;20308;-66
2023/10/31 03:51:17;;;;;;;8.30;1.90;;;17.10;99.90;;;;;;5082092;28;20198;-66
2023/10/31 03:53:44;;;;;;;2.53;1.23;;;17.10;99.80;;;;;;5065192;28;20658;-66
2023/10/31 03:56:11;;;;;;;4.60;1.40;;;17.10;99.70;;;;;;5083332;28;20195;-66
2023/10/31 03:58:40;;;;;;;4.90;1.63;;;17.10;99.60;;;;;;5075017;28;20214;-66
2023/10/31 04:01:07;;;;;;;6.20;1.53;;;17.10;99.60;;;;;;5084001;28;20380;-66
2023/10/31 04:03:34;;;;;;;5.77;1.67;;;17.10;99.60;;;;;;5084495;28;20194;-66
2023/10/31 04:06:01;;;;;;;9.27;1.37;;;17.10;99.50;;;;;;5061886;28;20287;-66
2023/10/31 04:08:28;;;;;;;4.00;1.03;;;17.10;99.60;;;;;;5070234;28;20206;-66
2023/10/31 04:10:55;;;;;;;3.57;1.20;;;17.10;99.60;;;;;;5087032;28;20206;-66
2023/10/31 04:13:22;;;;;;;4.63;1.20;;;17.10;99.60;;;;;;5076277;28;20265;-66
2023/10/31 04:15:49;;;;;;;4.83;1.20;;;17.10;99.80;;;;;;5080150;28;20204;-66
2023/10/31 04:18:16;;;;;;;5.63;1.80;;;17.10;99.50;;;;;;5083322;28;20304;-66
2023/10/31 04:20:43;;;;;;;4.70;1.30;;;17.20;99.70;;;;;;5081877;28;20277;-66
2023/10/31 04:23:11;;;;;;;2.93;1.00;;;17.20;99.30;;;;;;5083542;28;20231;-66
2023/10/31 04:25:38;;;;;;;6.93;1.50;;;17.30;99.20;;;;;;5081687;28;20250;-66
2023/10/31 04:28:05;;;;;;;2.93;1.40;;;17.30;99.10;;;;;;5085865;28;20202;-66
2023/10/31 04:30:32;;;;;;;7.73;1.47;;;17.40;98.90;;;;;;5084916;28;20230;-66
2023/10/31 04:32:59;;;;;;;4.27;1.47;;;17.40;98.90;;;;;;5082027;28;20199;-66
2023/10/31 04:35:26;;;;;;;5.10;1.47;;;17.40;98.80;;;;;;5081938;28;20677;-66
2023/10/31 04:37:53;;;;;;;8.80;1.20;;;17.50;98.70;;;;;;5084043;28;20273;-66
2023/10/31 04:40:20;;;;;;;6.63;1.70;;;17.50;98.60;;;;;;5078310;28;20287;-66
2023/10/31 04:42:47;;;;;;;6.17;1.00;;;17.50;98.60;;;;;;5083255;28;20211;-66
2023/10/31 04:45:14;;;;;;;4.83;1.73;;;17.50;98.50;;;;;;5080142;28;20208;-65
2023/10/31 04:47:42;;;;;;;5.80;1.27;;;17.50;98.50;;;;;;5073824;28;20207;-65
2023/10/31 04:50:09;;;;;;;5.67;1.50;;;17.50;98.40;;;;;;5084537;28;20235;-65
2023/10/31 04:52:36;;;;;;;5.97;1.37;;;17.60;98.40;;;;;;5075316;28;20201;-65
2023/10/31 04:55:03;;;;;;;2.23;0.73;;;17.60;98.30;;;;;;5079564;28;20204;-65
2023/10/31 04:57:31;;;;;;;4.67;1.37;;;17.60;98.30;;;;;;5075794;28;20657;-65
2023/10/31 04:59:59;;;;;;;2.77;0.83;;;17.60;98.20;;;;;;5080092;28;20238;-65
2023/10/31 05:02:26;;;;;;;4.60;1.30;;;17.70;98.20;;;;;;5081769;28;20204;-65
2023/10/31 05:04:53;;;;;;;5.57;1.10;;;17.70;98.20;;;;;;5080399;28;20282;-66
2023/10/31 05:07:20;;;;;;;4.30;1.20;;;17.70;98.20;;;;;;5080138;28;20214;-66
2023/10/31 05:09:47;;;;;;;4.87;2.03;;;17.70;98.20;;;;;;5087452;28;20275;-66
2023/10/31 05:12:14;;;;;;;1.57;1.00;;;17.70;98.20;;;;;;5078698;28;20205;-66
2023/10/31 05:14:41;;;;;;;3.67;1.20;;;17.70;98.10;;;;;;5088310;28;20286;-66
2023/10/31 05:17:08;;;;;;;4.17;0.97;;;17.80;98.10;;;;;;5079587;28;20617;-65
2023/10/31 05:19:35;;;;;;;3.57;1.27;;;17.80;98.10;;;;;;5084597;28;20628;-65
2023/10/31 05:22:02;;;;;;;5.00;1.17;;;17.70;98.00;;;;;;5079192;28;21054;-66
2023/10/31 05:24:29;;;;;;;3.27;0.77;;;17.80;97.90;;;;;;5084234;28;20203;-66
2023/10/31 05:26:56;;;;;;;4.73;1.00;;;17.80;97.80;;;;;;5079958;28;20212;-66
2023/10/31 05:29:23;;;;;;;5.07;1.17;;;17.70;97.70;;;;;;5084058;28;20231;-66
2023/10/31 05:31:50;;;;;;;3.20;0.87;;;17.70;97.70;;;;;;5081349;28;20540;-66
2023/10/31 05:34:17;;;;;;;2.93;0.80;;;17.70;97.70;;;;;;5081425;28;20644;-65
2023/10/31 05:36:44;;;;;;;2.30;0.93;;;17.60;97.60;;;;;;5086843;28;20201;-65
2023/10/31 05:39:11;;;;;;;3.33;1.13;;;17.60;97.60;;;;;;5081438;28;20204;-65
2023/10/31 05:41:38;;;;;;;3.60;0.93;;;17.50;97.60;;;;;;5082345;28;20642;-65
2023/10/31 05:44:05;;;;;;;4.37;1.40;;;17.50;97.50;;;;;;5085329;28;20528;-65
2023/10/31 05:46:37;;;;;;;1.73;0.90;;;17.50;97.50;;;;;;5088929;28;20228;-65
2023/10/31 05:49:06;;;;;;;5.33;1.13;;;17.40;97.40;;;;;;5086874;28;20212;-65
2023/10/31 05:51:33;;;;;;;1.87;0.70;;;17.40;97.30;;;;;;5070233;28;20548;-65
2023/10/31 05:54:01;;;;;;;3.40;1.00;;;17.40;97.20;;;;;;5085893;28;20699;-65
2023/10/31 05:56:28;;;;;;;3.43;1.20;;;17.40;97.00;;;;;;5088819;28;20618;-65
2023/10/31 05:58:55;;;;;;;2.03;1.00;;;17.30;96.80;;;;;;5087182;28;20198;-65
2023/10/31 06:01:22;;;;;;;2.00;0.80;;;17.30;96.70;;;;;;5079597;28;20253;-65
2023/10/31 06:03:49;;;;;;;4.47;1.17;;;17.30;96.60;;;;;;5085571;28;20198;-65
2023/10/31 06:06:16;;;;;;;1.80;0.93;;;17.20;96.50;;;;;;5085066;28;20219;-65
2023/10/31 06:08:43;;;;;;;4.67;1.60;;;17.20;96.40;;;;;;5090083;28;20239;-65
2023/10/31 06:11:12;;;;;;;4.43;1.17;;;17.20;96.30;;;;;;5086860;28;20210;-65
2023/10/31 06:13:40;;;;;;;3.90;1.10;;;17.20;96.30;;;;;;5083703;28;20259;-65
2023/10/31 06:16:07;;;;;;;3.33;0.93;;;17.20;96.20;;;;;;5086176;28;20214;-66
2023/10/31 06:18:35;;;;;;;3.87;1.13;;;17.20;96.10;;;;;;5084261;28;20203;-66
2023/10/31 06:21:02;;;;;;;5.07;1.00;;;17.20;96.00;;;;;;5086923;28;20223;-66
2023/10/31 06:23:29;;;;;;;3.40;0.90;;;17.20;95.90;;;;;;5082923;28;20227;-66
2023/10/31 06:25:58;;;;;;;3.23;0.87;;;17.20;95.70;;;;;;5085357;28;20274;-66
2023/10/31 06:28:26;;;;;;;4.07;0.77;;;17.20;95.50;;;;;;5082007;28;20195;-66
2023/10/31 06:30:53;;;;;;;2.30;0.77;;;17.30;95.30;;;;;;5087465;28;20582;-66
2023/10/31 06:33:20;;;;;;;1.70;1.00;;;17.30;95.20;;;;;;5081354;28;20195;-66
2023/10/31 06:35:47;;;;;;;2.57;0.80;;;17.30;95.10;;;;;;5086135;28;20205;-66
2023/10/31 06:38:14;;;;;;;4.27;0.97;;;17.40;95.00;;;;;;5084236;28;20304;-66
2023/10/31 06:40:41;;;;;;;1.23;0.63;;;17.40;94.60;;;;;;5089069;28;20267;-66
2023/10/31 06:43:08;;;;;;;2.77;0.80;;;17.50;94.30;;;;;;5082392;28;20208;-66
2023/10/31 06:45:35;;;;;;;1.30;0.57;;;17.60;93.90;;;;;;5084039;28;20201;-66
2023/10/31 06:48:03;;;;;;;1.97;0.93;;;17.60;93.50;;;;;;5078730;28;20217;-66
2023/10/31 06:50:32;;;;;;;2.43;0.80;;;17.70;93.10;;;;;;5080123;28;20639;-66
2023/10/31 06:52:59;;;;;;;1.30;0.73;;;17.80;92.70;;;;;;5083532;28;20203;-66
2023/10/31 06:55:26;;;;;;;1.50;0.70;;;17.90;92.30;;;;;;5090788;28;20205;-66
2023/10/31 06:57:53;;;;;;;1.13;0.83;;;18.00;92.00;;;;;;5090206;28;20203;-66
2023/10/31 07:00:20;;;;;;;2.17;0.77;;;18.10;91.80;;;;;;5082378;28;20198;-66
2023/10/31 07:02:48;;;;;;;0.67;0.47;;;18.30;91.70;;;;;;5089847;28;20656;-66
2023/10/31 07:05:16;;;;;;;3.20;0.77;;;18.50;91.40;;;;;;5086102;28;20196;-66
2023/10/31 07:07:43;;;;;;;2.00;0.80;;;18.80;91.00;;;;;;5080921;28;20532;-66
2023/10/31 07:10:10;;;;;;;2.60;0.80;;;19.00;90.40;;;;;;5081327;28;20208;-66
2023/10/31 07:12:37;;;;;;;3.87;1.10;;;19.00;90.10;;;;;;5083436;28;20191;-66
2023/10/31 07:15:04;;;;;;;6.43;0.90;;;19.00;89.40;;;;;;5086589;28;20203;-66
2023/10/31 07:17:31;;;;;;;2.63;0.80;;;19.00;88.70;;;;;;5083706;28;20278;-66
2023/10/31 07:19:58;;;;;;;1.80;0.63;;;19.20;88.00;;;;;;5083520;28;20221;-66
2023/10/31 07:22:25;;;;;;;3.27;0.87;;;19.40;86.80;;;;;;5083119;28;20234;-66
2023/10/31 07:24:53;;;;;;;1.87;0.97;;;19.50;86.00;;;;;;5085019;28;20614;-66
2023/10/31 07:27:20;;;;;;;4.00;0.70;;;19.50;85.10;;;;;;5081899;28;20200;-66
2023/10/31 07:29:47;;;;;;;2.73;0.83;;;19.40;84.40;;;;;;5085420;28;20198;-66
2023/10/31 07:32:14;;;;;;;3.80;0.87;;;19.20;84.20;;;;;;5085020;28;20195;-66
2023/10/31 07:34:44;;;;;;;2.53;0.70;;;19.00;84.10;;;;;;5087369;28;20192;-66
2023/10/31 07:37:11;;;;;;;5.90;1.20;;;18.90;84.00;;;;;;5084835;28;20203;-66
2023/10/31 07:39:38;;;;;;;5.90;1.20;;;18.80;84.10;;;;;;5083113;28;20288;-66
2023/10/31 07:42:06;;;;;;;5.23;0.83;;;18.70;83.80;;;;;;5084287;28;20688;-66
2023/10/31 07:44:33;;;;;;;2.03;0.57;;;18.50;85.20;;;;;;5080564;28;20510;-66
2023/10/31 07:47:00;;;;;;;0.40;0.40;;;18.30;85.70;;;;;;5075672;28;20625;-66
2023/10/31 07:49:27;;;;;;;3.20;0.40;;;18.00;86.50;;;;;;5063672;28;20223;-66
2023/10/31 07:51:54;;;;;;;1.80;0.70;;;17.80;87.80;;;;;;5081357;28;20294;-66
2023/10/31 07:54:21;;;;;;;0.87;0.50;;;17.50;88.40;;;;;;5076904;28;20269;-66
2023/10/31 07:56:48;;;;;;;1.83;0.33;;;17.30;89.60;;;;;;5081129;28;20210;-66
2023/10/31 07:59:15;;;;;;;0.97;0.50;;;17.00;90.20;;;;;;5063760;28;20357;-66
2023/10/31 08:01:42;;;;;;;0.77;0.47;;;16.90;90.70;;;;;;5067657;28;20242;-66
2023/10/31 08:04:09;;;;;;;0.40;0.40;;;16.80;91.10;;;;;;5071199;28;20766;-66
2023/10/31 08:06:37;;;;;;;2.83;0.60;;;16.70;91.50;;;;;;5087557;28;20197;-66
2023/10/31 08:09:04;;;;;;;1.70;0.40;;;16.70;92.00;;;;;;5086577;28;20206;-66
2023/10/31 08:11:35;;;;;;;1.07;0.50;;;16.60;92.20;;;;;;5083421;28;20245;-66
2023/10/31 08:14:02;;;;;;;3.87;0.70;;;16.60;92.70;;;;;;5084496;28;20198;-66
2023/10/31 08:16:29;;;;;;;3.13;0.63;;;16.50;92.90;;;;;;5082338;28;20215;-66
2023/10/31 08:18:56;;;;;;;5.03;0.70;;;16.30;93.10;;;;;;5082387;28;20205;-66
2023/10/31 08:21:23;;;;;;;4.97;0.70;;;16.20;93.30;;;;;;5066234;28;20226;-67
2023/10/31 08:23:50;;;;;;;0.80;0.43;;;16.00;93.70;;;;;;5079061;28;20247;-67
2023/10/31 08:26:17;;;;;;;1.60;0.43;;;15.80;94.00;;;;;;5084139;28;20205;-67
2023/10/31 08:28:44;;;;;;;1.47;0.57;;;15.70;94.30;;;;;;5080947;28;20281;-67
2023/10/31 08:31:11;;;;;;;0.30;0.30;;;15.50;94.50;;;;;;5084909;28;20255;-67
2023/10/31 08:33:38;;;;;;;1.87;0.67;;;15.50;94.80;;;;;;5081031;28;20260;-67
2023/10/31 08:36:06;;;;;;;0.13;0.13;;;15.40;95.00;;;;;;5083289;28;20201;-67
2023/10/31 08:38:33;;;;;;;1.03;0.60;;;15.40;95.10;;;;;;5080115;28;20211;-67
2023/10/31 08:41:00;;;;;;;1.87;0.60;;;15.40;95.20;;;;;;5079801;28;20290;-66
2023/10/31 08:43:28;;;;;;;4.00;0.40;;;15.40;95.20;;;;;;5082116;28;20258;-66
2023/10/31 08:45:55;;;;;;;0.77;0.43;;;15.40;95.10;;;;;;5077476;28;20666;-66
2023/10/31 08:48:22;;;;;;;2.93;0.60;;;15.40;95.10;;;;;;5089580;28;20221;-67
2023/10/31 08:50:49;;;;;;;2.87;0.60;;;15.40;95.00;;;;;;5086571;28;20252;-66
2023/10/31 08:53:16;;;;;;;0.77;0.40;;;15.40;94.80;;;;;;5087776;28;20652;-66
2023/10/31 08:55:44;;;;;;;1.63;0.40;;;15.50;94.50;;;;;;5085847;28;20196;-66
2023/10/31 08:58:12;;;;;;;2.03;0.40;;;15.50;94.10;;;;;;5065170;28;20202;-66
2023/10/31 09:00:43;;;;;;;3.40;0.50;;;15.60;93.70;;;;;;5081640;28;20237;-66
2023/10/31 09:03:10;;;;;;;0.50;0.40;;;15.60;93.40;;;;;;5086090;28;20221;-66
2023/10/31 09:05:37;;;;;;;0.50;0.37;;;15.60;93.10;;;;;;5082408;28;20192;-67
2023/10/31 09:08:05;;;;;;;1.90;0.30;;;15.70;93.00;;;;;;5084717;28;20270;-66
2023/10/31 09:10:35;;;;;;;0.20;0.20;;;15.80;92.90;;;;;;5080603;28;20197;-66
2023/10/31 09:13:02;;;;;;;0.53;0.37;;;15.90;92.60;;;;;;5083421;28;20631;-66
2023/10/31 09:15:29;;;;;;;2.63;0.30;;;16.10;92.30;;;;;;5080324;28;20259;-66
2023/10/31 09:17:57;;;;;;;1.77;0.33;;;16.30;91.90;;;;;;5082434;28;20220;-67
2023/10/31 09:20:24;;;;;;;2.87;0.40;;;16.60;91.30;;;;;;5081654;28;20209;-66
2023/10/31 09:22:51;;;;;;;1.60;0.30;;;16.80;91.00;;;;;;5084151;28;20745;-66
2023/10/31 09:25:19;;;;;;;0.77;0.30;;;17.00;90.50;;;;;;5081812;28;20204;-66
2023/10/31 09:27:46;;;;;;;4.73;0.40;;;17.20;89.50;;;;;;5086104;28;20195;-66
2023/10/31 09:30:13;;;;;;;0.70;0.30;;;17.40;88.90;;;;;;5082720;28;20247;-66
2023/10/31 09:32:40;;;;;;;1.83;0.43;;;17.50;87.20;;;;;;5082062;28;20525;-66
2023/10/31 09:35:08;;;;;;;0.50;0.20;;;17.60;85.90;;;;;;5065292;28;20196;-66
2023/10/31 09:37:35;;;;;;;0.60;0.17;;;17.70;85.10;;;;;;5084199;28;20198;-66
2023/10/31 09:40:02;;;;;;;1.23;0.37;;;17.80;85.30;;;;;;5085768;28;20198;-66
2023/10/31 09:42:29;;;;;;;0.73;0.37;;;17.90;83.10;;;;;;5084309;28;20661;-67
2023/10/31 09:44:56;;;;;;;4.23;0.30;;;17.90;82.30;;;;;;5095369;28;20274;-64
2023/10/31 09:47:24;;;;;;;1.23;0.30;;;17.90;81.60;;;;;;5055724;28;20195;-65
2023/10/31 09:49:52;;;;;;;1.70;0.30;;;18.00;81.50;;;;;;5088570;28;20208;-66
2023/10/31 09:52:20;;;;;;;2.40;0.30;;;18.00;81.40;;;;;;5073974;28;20199;-66
2023/10/31 09:54:49;;;;;;;3.50;0.50;;;18.10;81.50;;;;;;5081177;28;20209;-65
2023/10/31 09:57:17;;;;;;;0.43;0.23;;;18.20;80.40;;;;;;5086856;28;20644;-65
2023/10/31 09:59:45;;;;;;;2.30;0.50;;;18.40;78.80;;;;;;5081659;28;20228;-65
2023/10/31 10:02:12;;;;;;;5.00;1.47;;;18.50;78.60;;;;;;5085244;28;20307;-66
2023/10/31 10:04:39;;;;;;;2.90;0.30;;;18.60;78.80;;;;;;5083550;28;20274;-66
2023/10/31 10:07:06;;;;;;;0.83;0.30;;;18.70;78.50;;;;;;5066164;28;20675;-65
2023/10/31 10:09:34;;;;;;;0.40;0.40;;;18.80;77.80;;;;;;5086902;28;20220;-67
2023/10/31 10:12:01;;;;;;;1.97;0.37;;;18.90;77.60;;;;;;5084056;28;20243;-64
2023/10/31 10:14:31;;;;;;;7.33;0.70;;;19.00;77.30;;;;;;5083892;28;20625;-65
2023/10/31 10:16:59;;;;;;;3.37;0.70;;;19.20;77.20;;;;;;5083310;28;20247;-65
2023/10/31 10:19:27;;;;;;;2.90;0.50;;;19.30;77.10;;;;;;5084903;28;20214;-64
2023/10/31 10:21:59;;;;;;;2.30;0.40;;;19.40;76.10;;;;;;5083825;28;20269;-66
2023/10/31 10:24:26;;;;;;;0.93;0.30;;;19.50;76.80;;;;;;5081876;28;20275;-64
2023/10/31 10:26:53;;;;;;;2.80;0.50;;;19.60;75.80;;;;;;5082794;28;20208;-66
2023/10/31 10:29:20;;;;;;;2.67;0.50;;;19.70;75.90;;;;;;5073435;28;20224;-66
2023/10/31 10:31:47;;;;;;;0.30;0.30;;;19.80;75.30;;;;;;5086878;28;20284;-65
2023/10/31 10:34:16;;;;;;;0.93;0.30;;;19.80;74.90;;;;;;5082565;28;20203;-65
2023/10/31 10:36:49;;;;;;;1.13;0.20;;;19.80;74.80;;;;;;5077451;28;20203;-65
2023/10/31 10:39:20;;;;;;;0.60;0.40;;;19.80;74.50;;;;;;5080813;28;20215;-65
2023/10/31 10:41:57;;;;;;;4.43;0.40;;;19.90;74.30;;;;;;5089541;28;20586;-65
2023/10/31 10:44:33;;;;;;;3.30;0.93;;;20.00;73.70;;;;;;5077653;28;20653;-65
2023/10/31 10:47:12;;;;;;;0.57;0.40;;;20.00;74.10;;;;;;5080529;28;20200;-65
2023/10/31 10:49:42;;;;;;;4.20;0.40;;;20.10;73.00;;;;;;5082599;28;20197;-65
2023/10/31 10:52:28;;;;;;;0.27;0.27;;;20.10;71.90;;;;;;5078022;28;20208;-65
2023/10/31 10:55:07;;;;;;;2.93;0.40;;;20.10;71.80;;;;;;5081295;28;20213;-65
2023/10/31 10:57:37;;;;;;;0.67;0.20;;;20.10;70.70;;;;;;5080353;28;20533;-64
2023/10/31 11:00:09;;;;;;;0.47;0.30;;;20.10;71.60;;;;;;5085914;28;20278;-65
2023/10/31 11:02:36;;;;;;;0.43;0.30;;;20.20;72.10;;;;;;5082310;28;20232;-64
2023/10/31 11:05:08;;;;;;;0.63;0.40;;;20.30;71.90;;;;;;5086703;28;20279;-65
2023/10/31 11:07:37;;;;;;;0.83;0.30;;;20.30;71.00;;;;;;5083268;28;20662;-64
2023/10/31 11:10:05;;;;;;;0.30;0.20;;;20.40;70.80;;;;;;5085734;28;20589;-65
2023/10/31 11:12:33;;;;;;;1.30;0.30;;;20.40;69.40;;;;;;5081785;28;20232;-65
2023/10/31 11:15:02;;;;;;;0.33;0.20;;;20.50;69.20;;;;;;5082870;28;20262;-65
2023/10/31 11:17:36;;;;;;;1.50;0.30;;;20.50;69.80;;;;;;5065621;28;20201;-65
2023/10/31 11:20:07;;;;;;;0.47;0.47;;;20.60;69.00;;;;;;5082222;28;20516;-64
2023/10/31 11:22:45;;;;;;;0.60;0.23;;;20.70;68.30;;;;;;5083998;28;20332;-65
2023/10/31 11:25:23;;;;;;;1.83;0.27;;;20.70;67.40;;;;;;5082049;28;20635;-65
2023/10/31 11:28:16;;;;;;;0.20;0.20;;;20.80;67.00;;;;;;5083445;28;20628;-65
2023/10/31 11:30:45;;;;;;;1.37;0.30;;;20.90;69.10;;;;;;5066563;28;20197;-65
2023/10/31 11:33:18;;;;;;;1.40;0.20;;;21.00;69.50;;;;;;5083465;28;20204;-64
2023/10/31 11:35:50;;;;;;;0.23;0.20;;;21.10;67.50;;;;;;5087802;28;20685;-65
2023/10/31 11:38:32;;;;;;;0.50;0.27;;;21.10;66.60;;;;;;5082197;28;20208;-65
2023/10/31 11:41:01;;;;;;;0.73;0.20;;;21.20;66.10;;;;;;5086922;28;20521;-64
2023/10/31 11:43:41;;;;;;;0.30;0.30;;;21.30;64.90;;;;;;5084320;28;20201;-64
2023/10/31 11:46:28;;;;;;;0.50;0.20;;;21.30;65.40;;;;;;5082355;28;20208;-65
2023/10/31 11:48:56;;;;;;;0.37;0.23;;;21.40;65.00;;;;;;5072610;28;20307;-65
2023/10/31 11:51:24;;;;;;;0.10;0.10;;;21.40;64.60;;;;;;5080217;28;20225;-64
2023/10/31 11:53:52;;;;;;;0.10;0.10;;;21.50;65.10;;;;;;5085684;28;20202;-64
2023/10/31 11:56:20;;;;;;;2.57;0.30;;;21.50;64.80;;;;;;5068331;28;20308;-65
2023/10/31 11:59:02;;;;;;;0.23;0.23;;;21.60;64.50;;;;;;5084362;28;20197;-64
2023/10/31 12:01:30;;;;;;;0.20;0.20;;;21.70;64.60;;;;;;5085318;28;20198;-65
2023/10/31 12:03:57;;;;;;;0.50;0.50;;;21.70;64.00;;;;;;5088045;28;20273;-65
2023/10/31 12:06:25;;;;;;;5.00;0.30;;;21.80;63.50;;;;;;5082760;28;20535;-66
2023/10/31 12:08:52;;;;;;;0.60;0.30;;;21.80;62.70;;;;;;5084773;28;20205;-65
2023/10/31 12:11:21;;;;;;;0.27;0.20;;;21.80;63.20;;;;;;5081288;28;20293;-65
2023/10/31 12:13:56;;;;;;;2.53;0.50;;;21.90;64.30;;;;;;5085328;28;20228;-65
2023/10/31 12:16:28;;;;;;;0.40;0.20;;;21.90;63.10;;;;;;5088126;28;20283;-66
2023/10/31 12:19:03;;;;;;;0.20;0.20;;;22.00;63.40;;;;;;5082197;28;20247;-65
2023/10/31 12:21:46;;;;;;;0.30;0.20;;;22.00;64.00;;;;;;5066616;28;20224;-66
2023/10/31 12:24:15;;;;;;;0.33;0.23;;;22.10;63.80;;;;;;5087850;28;20284;-65
2023/10/31 12:26:42;;;;;;;0.10;0.10;;;22.10;63.60;;;;;;5081894;28;20193;-65
2023/10/31 12:29:20;;;;;;;0.83;0.23;;;22.20;63.50;;;;;;5071941;28;20252;-65
2023/10/31 12:31:53;;;;;;;0.30;0.20;;;22.20;63.00;;;;;;5080964;28;20197;-66
2023/10/31 12:34:22;;;;;;;0.20;0.20;;;22.20;62.20;;;;;;5081039;28;20244;-66
2023/10/31 12:36:51;;;;;;;0.40;0.20;;;22.20;62.40;;;;;;5078627;28;20639;-64
2023/10/31 12:39:28;;;;;;;0.30;0.20;;;22.20;61.20;;;;;;5074792;28;20228;-65
2023/10/31 12:41:57;;;;;;;0.50;0.30;;;22.20;59.40;;;;;;5072732;28;20210;-64
2023/10/31 12:44:27;;;;;;;0.20;0.20;;;22.10;57.40;;;;;;5077671;28;20229;-66
2023/10/31 12:46:55;;;;;;;0.10;0.10;;;22.10;58.10;;;;;;5073752;28;20201;-66
2023/10/31 12:49:23;;;;;;;0.83;0.40;;;22.00;57.10;;;;;;5082141;28;20290;-66
2023/10/31 12:51:57;;;;;;;0.60;0.30;;;21.90;57.20;;;;;;5076679;28;20198;-66
2023/10/31 12:54:34;;;;;;;0.20;0.20;;;21.80;56.40;;;;;;5085535;28;20203;-66